Time;durP1;ratioP1;P1;durP2;ratioP2;P2;SDS_P1;SDS_P2;PMS_P1;PMS_P2;Temp;Humidity;BMP_temperature;BMP_pressure;BME280_temperature;BME280_humidity;BME280_pressure;Samples;Min_cycle;Max_cycle;Signal;HPM_P1;HPM_P2
2023/01/19 00:00:34;;;;;;;;;24.00;21.25;;;;;12.61;66.88;100176.22;5081136;28;45386;-87
2023/01/19 00:02:59;;;;;;;;;16.00;15.33;;;;;12.62;67.00;100172.53;5080594;28;46248;-87
2023/01/19 00:05:25;;;;;;;;;16.67;15.00;;;;;12.64;66.95;100170.50;5080925;28;46515;-87
2023/01/19 00:07:50;;;;;;;;;17.67;16.33;;;;;12.67;66.79;100182.59;5062517;28;45308;-87
2023/01/19 00:10:16;;;;;;;;;16.33;15.00;;;;;12.73;67.19;100193.28;5080738;28;45198;-87
2023/01/19 00:12:41;;;;;;;;;15.00;15.00;;;;;12.77;67.42;100184.88;5080469;28;45417;-87
2023/01/19 00:15:07;;;;;;;;;18.67;15.33;;;;;12.71;67.43;100171.34;5080866;28;45300;-87
2023/01/19 00:17:32;;;;;;;;;17.50;17.50;;;;;12.78;67.41;100199.84;5062697;28;45435;-88
2023/01/19 00:19:58;;;;;;;;;19.00;17.67;;;;;12.78;67.42;100191.84;5080250;28;45370;-88
2023/01/19 00:22:23;;;;;;;;;26.75;24.50;;;;;12.83;67.27;100194.72;5080425;28;45461;-88
2023/01/19 00:24:49;;;;;;;;;20.25;20.00;;;;;12.79;67.28;100204.16;5080700;28;45370;-88
2023/01/19 00:27:14;;;;;;;;;25.75;21.00;;;;;12.80;67.87;100203.97;5067151;28;45256;-88
2023/01/19 00:29:40;;;;;;;;;23.67;19.67;;;;;12.82;67.13;100203.75;5062107;28;46204;-88
2023/01/19 00:32:05;;;;;;;;;21.00;19.50;;;;;12.74;67.03;100212.75;5080243;28;45362;-87
2023/01/19 00:34:38;;;;;;;;;22.25;22.00;;;;;12.73;67.64;100213.78;5062005;28;45360;-88
2023/01/19 00:37:07;;;;;;;;;18.67;15.67;;;;;12.77;67.60;100214.19;5080293;28;45349;-88
2023/01/19 00:39:32;;;;;;;;;21.00;21.00;;;;;12.76;66.90;100216.06;5080311;28;45247;-87
2023/01/19 00:48:48;;;;;;;;;24.00;23.00;;;;;12.74;68.27;100208.25;5068711;28;45327;-87
2023/01/19 00:51:13;;;;;;;;;22.33;21.33;;;;;12.86;68.43;100218.31;5079734;28;45451;-88
2023/01/19 00:53:38;;;;;;;;;22.50;22.50;;;;;12.93;68.42;100210.34;5061812;28;48319;-88
2023/01/19 00:56:04;;;;;;;;;25.25;23.00;;;;;13.02;68.60;100221.66;5079833;28;45320;-87
2023/01/19 00:58:29;;;;;;;;;31.75;23.50;;;;;13.04;68.11;100225.75;5080195;28;45231;-88
2023/01/19 01:01:02;;;;;;;;;26.75;25.75;;;;;13.03;68.37;100225.94;5079747;28;45312;-88
2023/01/19 01:03:27;;;;;;;;;22.67;20.00;;;;;13.04;68.38;100232.91;5079782;28;45232;-88
2023/01/19 01:05:52;;;;;;;;;28.25;25.00;;;;;13.03;68.39;100231.28;5078100;28;45283;-87
2023/01/19 01:08:17;;;;;;;;;24.25;22.50;;;;;13.02;68.45;100229.66;5080360;28;45388;-88
2023/01/19 01:10:43;;;;;;;;;24.00;22.33;;;;;13.02;68.06;100230.44;5079799;28;45231;-88
2023/01/19 01:13:08;;;;;;;;;25.50;22.25;;;;;13.05;67.69;100235.38;5079831;28;45210;-88
2023/01/19 01:15:34;;;;;;;;;23.00;21.50;;;;;13.05;67.89;100239.91;5061601;28;45318;-87
2023/01/19 01:17:59;;;;;;;;;25.50;23.75;;;;;12.97;67.45;100241.75;5080008;28;45170;-87
2023/01/19 01:20:26;;;;;;;;;28.00;23.25;;;;;12.96;67.69;100237.41;5079534;28;45511;-88
2023/01/19 01:22:52;;;;;;;;;26.00;23.50;;;;;12.96;67.91;100245.44;5079728;28;46353;-87
2023/01/19 01:25:24;;;;;;;;;24.50;21.25;;;;;13.03;68.23;100249.94;5061226;28;45462;-88
2023/01/19 01:27:49;;;;;;;;;25.25;24.25;;;;;13.05;68.10;100251.38;5079694;28;45362;-88
2023/01/19 01:30:15;;;;;;;;;28.25;24.75;;;;;13.08;68.22;100260.84;5079298;28;45619;-88
2023/01/19 01:32:41;;;;;;;;;26.25;24.00;;;;;13.06;67.94;100258.38;5061380;28;47264;-88
2023/01/19 01:35:07;;;;;;;;;20.67;20.33;;;;;13.06;68.52;100262.88;5061168;28;45537;-88
2023/01/19 01:37:34;;;;;;;;;15.75;15.50;;;;;13.08;68.00;100264.31;5061438;28;45260;-88
2023/01/19 01:39:59;;;;;;;;;20.33;19.33;;;;;13.07;67.96;100261.84;5079306;28;45422;-87
2023/01/19 01:42:27;;;;;;;;;22.67;20.67;;;;;13.09;68.14;100262.47;5079480;28;46252;-88
2023/01/19 01:44:55;;;;;;;;;19.00;18.33;;;;;13.10;67.86;100266.78;5079307;28;45476;-88
2023/01/19 01:47:27;;;;;;;;;27.25;22.00;;;;;13.16;68.11;100267.81;5061373;28;45374;-88
2023/01/19 01:50:01;;;;;;;;;22.00;17.67;;;;;13.21;68.16;100274.22;5060527;28;45981;-88
2023/01/19 01:52:28;;;;;;;;;24.00;21.67;;;;;13.23;67.77;100276.69;5079371;28;45505;-88
2023/01/19 01:54:55;;;;;;;;;27.00;23.33;;;;;13.23;67.79;100282.81;5079298;28;45245;-88
2023/01/19 01:57:21;;;;;;;;;25.00;22.75;;;;;13.06;68.37;100282.41;5079513;28;45219;-88
2023/01/19 01:59:49;;;;;;;;;25.33;22.33;;;;;13.03;67.82;100277.47;5065275;27;45528;-88
2023/01/19 02:05:16;;;;;;;;;27.25;24.50;;;;;13.02;68.14;100285.66;5064843;28;45435;-88
2023/01/19 02:13:18;;;;;;;;;29.75;23.75;;;;;13.04;68.56;100281.75;5076666;28;45334;-88
2023/01/19 02:15:45;;;;;;;;;21.25;18.75;;;;;13.12;68.44;100286.09;5082504;28;45314;-88
2023/01/19 02:18:10;;;;;;;;;22.33;20.00;;;;;13.13;68.00;100291.22;5082824;28;45276;-88
2023/01/19 02:20:38;;;;;;;;;20.00;18.25;;;;;13.19;68.11;100294.94;5082173;28;45283;-88
2023/01/19 02:23:14;;;;;;;;;28.50;26.50;;;;;13.18;67.94;100290.63;5082736;28;45462;-87
2023/01/19 02:25:40;;;;;;;;;24.67;23.33;;;;;13.10;67.76;100285.47;5082255;28;45417;-88
2023/01/19 02:28:06;;;;;;;;;25.50;22.50;;;;;13.05;67.69;100286.06;5082427;28;45368;-88
2023/01/19 02:30:32;;;;;;;;;22.33;21.67;;;;;13.09;67.77;100286.50;5076319;28;45602;-88
2023/01/19 02:32:57;;;;;;;;;24.33;22.33;;;;;13.10;67.74;100285.47;5081326;28;45259;-88
2023/01/19 02:35:23;;;;;;;;;27.50;27.00;;;;;13.07;67.63;100283.19;5082208;28;45353;-85
2023/01/19 02:37:51;;;;;;;;;28.25;26.50;;;;;13.01;67.97;100292.84;5082523;28;45268;-87
2023/01/19 02:40:19;;;;;;;;;26.50;24.25;;;;;13.07;67.72;100301.88;5082189;28;45276;-88
2023/01/19 02:42:48;;;;;;;;;25.00;24.50;;;;;13.07;68.13;100299.19;5063302;28;47174;-88
2023/01/19 02:45:19;;;;;;;;;25.75;25.50;;;;;13.11;67.83;100297.81;5069345;28;45226;-88
2023/01/19 02:47:50;;;;;;;;;29.50;27.75;;;;;13.09;68.19;100305.16;5063815;28;45362;-87
2023/01/19 02:50:45;;;;;;;;;30.25;29.50;;;;;13.12;67.91;100313.59;5063547;28;47260;-87
2023/01/19 02:53:41;;;;;;;;;24.25;23.75;;;;;13.07;68.10;100308.03;5063637;28;48435;-88
2023/01/19 02:56:15;;;;;;;;;29.00;27.33;;;;;13.07;68.32;100308.03;5081918;28;45398;-87
2023/01/19 02:59:05;;;;;;;;;30.00;28.75;;;;;13.08;68.57;100299.00;5063708;28;45510;-88
2023/01/19 03:01:47;;;;;;;;;30.50;27.00;;;;;13.10;68.36;100302.31;5067632;28;47313;-88
2023/01/19 03:04:32;;;;;;;;;25.33;23.00;;;;;13.11;68.17;100303.94;5081264;28;45399;-87
2023/01/19 03:07:09;;;;;;;;;22.33;22.33;;;;;13.10;67.38;100307.63;5081675;28;45422;-87
2023/01/19 03:09:57;;;;;;;;;23.33;21.33;;;;;13.42;65.80;100296.41;5050614;28;45317;-88
2023/01/19 03:12:34;;;;;;;;;20.67;17.33;;;;;13.47;65.77;100311.81;5040021;28;45327;-88
2023/01/19 03:15:08;;;;;;;;;21.67;18.33;;;;;13.12;66.42;100307.44;5081505;28;45371;-88
2023/01/19 03:17:36;;;;;;;;;24.00;19.00;;;;;13.02;66.56;100299.00;5081439;28;45522;-88
2023/01/19 03:20:05;;;;;;;;;19.75;19.00;;;;;13.07;66.91;100307.22;5080378;28;45361;-87
2023/01/19 03:22:31;;;;;;;;;24.00;20.33;;;;;13.06;66.74;100313.56;5081410;28;45306;-88
2023/01/19 03:25:00;;;;;;;;;24.67;22.67;;;;;13.07;67.27;100310.72;5063338;28;46357;-88
2023/01/19 03:27:29;;;;;;;;;26.67;22.33;;;;;13.11;67.26;100313.81;5068600;28;45237;-88
2023/01/19 03:30:00;;;;;;;;;25.67;25.00;;;;;13.03;67.48;100290.81;5081256;28;45411;-88
2023/01/19 03:32:34;;;;;;;;;27.67;22.33;;;;;13.17;67.23;100312.19;5081544;28;45268;-87
2023/01/19 03:35:04;;;;;;;;;25.00;25.00;;;;;13.15;66.39;100314.22;5080799;28;45255;-87
2023/01/19 03:37:32;;;;;;;;;28.00;24.00;;;;;13.06;66.45;100302.91;5080339;28;45540;-86
2023/01/19 03:39:59;;;;;;;;;25.75;22.00;;;;;13.04;66.17;100296.94;5063163;28;45323;-87
2023/01/19 03:42:27;;;;;;;;;24.00;20.50;;;;;12.98;66.58;100304.72;5081463;28;45346;-88
2023/01/19 03:44:55;;;;;;;;;30.00;25.00;;;;;12.91;66.25;100300.41;5080758;28;46433;-87
2023/01/19 03:47:21;;;;;;;;;26.75;24.25;;;;;12.90;65.93;100302.22;5080902;28;45487;-88
2023/01/19 03:49:49;;;;;;;;;29.75;26.50;;;;;12.81;66.07;100298.13;5080779;28;45246;-88
2023/01/19 03:52:15;;;;;;;;;25.33;23.67;;;;;12.79;66.45;100305.50;5081392;28;45309;-88
2023/01/19 03:54:40;;;;;;;;;27.50;25.25;;;;;12.69;66.10;100306.69;5080883;28;45803;-88
2023/01/19 03:57:06;;;;;;;;;29.25;25.75;;;;;12.57;66.42;100298.44;5062859;28;45808;-88
2023/01/19 03:59:31;;;;;;;;;29.00;26.25;;;;;12.60;67.28;100306.03;5062781;28;45291;-88
2023/01/19 04:01:57;;;;;;;;;33.00;29.50;;;;;12.65;66.66;100302.78;5081101;28;45598;-88
2023/01/19 04:04:24;;;;;;;;;28.25;27.00;;;;;12.61;66.96;100297.00;5062582;28;46051;-88
2023/01/19 04:06:50;;;;;;;;;30.75;27.00;;;;;12.60;67.45;100300.69;5082075;28;45298;-87
2023/01/19 04:09:15;;;;;;;;;24.00;23.25;;;;;12.63;67.26;100310.13;5081010;28;45295;-88
2023/01/19 04:11:40;;;;;;;;;24.25;23.50;;;;;12.58;66.86;100305.41;5081105;28;45295;-88
2023/01/19 04:14:05;;;;;;;;;21.75;20.75;;;;;12.60;67.06;100303.38;5080354;28;45424;-86
2023/01/19 04:16:31;;;;;;;;;29.75;22.75;;;;;12.60;67.02;100303.38;5080692;28;45329;-88
2023/01/19 04:18:56;;;;;;;;;27.75;25.50;;;;;12.56;67.17;100296.78;5080580;28;45225;-88
2023/01/19 04:21:22;;;;;;;;;21.00;20.75;;;;;12.57;66.68;100301.09;5080700;28;45303;-88
2023/01/19 04:23:48;;;;;;;;;23.50;23.50;;;;;12.52;66.82;100300.03;5079978;28;45621;-88
2023/01/19 04:26:14;;;;;;;;;14.75;14.25;;;;;12.51;67.32;100304.53;5080708;28;45237;-88
2023/01/19 04:28:40;;;;;;;;;27.75;26.25;;;;;12.54;67.29;100312.16;5080283;28;45489;-88
2023/01/19 04:31:07;;;;;;;;;22.25;22.00;;;;;12.54;67.33;100308.69;5062189;28;47307;-88
2023/01/19 04:33:33;;;;;;;;;26.50;25.50;;;;;12.50;67.46;100308.25;5062087;28;47127;-88
2023/01/19 04:35:59;;;;;;;;;27.00;22.50;;;;;12.46;67.58;100312.31;5079997;28;45436;-88
2023/01/19 04:38:24;;;;;;;;;20.25;20.25;;;;;12.41;67.20;100298.75;5080374;28;45309;-87
2023/01/19 04:40:51;;;;;;;;;22.00;19.75;;;;;12.42;66.95;100309.22;5062261;28;47630;-86
2023/01/19 04:43:18;;;;;;;;;27.67;23.33;;;;;12.36;67.24;100320.66;5080062;28;46180;-86
2023/01/19 04:45:45;;;;;;;;;28.25;23.50;;;;;12.28;67.42;100315.50;5062265;28;45278;-88
2023/01/19 04:48:11;;;;;;;;;31.25;26.50;;;;;12.25;67.62;100309.53;5079993;28;45199;-87
2023/01/19 04:50:37;;;;;;;;;23.25;22.00;;;;;12.28;68.13;100318.16;5079967;28;45680;-87
2023/01/19 04:53:03;;;;;;;;;24.75;23.25;;;;;12.27;67.81;100325.31;5079874;28;45973;-87
2023/01/19 04:55:28;;;;;;;;;25.25;19.25;;;;;12.22;67.77;100317.13;5080001;28;45399;-87
2023/01/19 04:57:54;;;;;;;;;28.00;24.25;;;;;12.22;68.37;100319.78;5061717;28;45603;-87
2023/01/19 05:00:20;;;;;;;;;22.00;21.75;;;;;12.19;67.57;100323.66;5061938;28;47520;-87
2023/01/19 05:02:46;;;;;;;;;21.00;19.75;;;;;12.11;67.86;100313.13;5061520;28;47346;-87
2023/01/19 05:05:11;;;;;;;;;23.50;20.50;;;;;12.06;67.94;100326.22;5079797;28;45358;-87
2023/01/19 05:07:37;;;;;;;;;21.50;20.00;;;;;12.07;68.24;100326.03;5080082;28;45540;-87
2023/01/19 05:10:04;;;;;;;;;23.25;21.75;;;;;11.96;68.43;100330.03;5079978;28;45558;-87
2023/01/19 05:12:29;;;;;;;;;27.00;23.00;;;;;11.96;68.35;100324.69;5079563;28;46289;-87
2023/01/19 05:14:55;;;;;;;;;24.75;23.50;;;;;11.92;68.91;100328.78;5079666;28;45256;-87
2023/01/19 05:17:21;;;;;;;;;26.00;25.00;;;;;11.94;69.25;100325.91;5078572;28;46045;-87
2023/01/19 05:19:47;;;;;;;;;22.75;22.75;;;;;11.90;68.95;100324.63;5061361;28;46032;-87
2023/01/19 05:22:13;;;;;;;;;29.75;24.75;;;;;11.93;69.00;100329.56;5079457;28;45578;-86
2023/01/19 05:24:38;;;;;;;;;26.00;25.00;;;;;11.94;68.75;100326.72;5079757;28;45339;-87
2023/01/19 05:27:04;;;;;;;;;24.25;23.00;;;;;11.93;68.92;100318.91;5079759;28;45563;-86
2023/01/19 05:29:29;;;;;;;;;25.50;21.50;;;;;11.91;69.15;100319.13;5061482;28;46055;-88
2023/01/19 05:31:54;;;;;;;;;34.00;29.25;;;;;11.89;69.20;100329.16;5079470;28;45535;-86
2023/01/19 05:34:20;;;;;;;;;24.25;20.00;;;;;11.90;69.33;100329.97;5078913;28;45406;-87
2023/01/19 05:36:45;;;;;;;;;22.25;18.25;;;;;11.87;69.87;100325.84;5079238;28;45271;-86
2023/01/19 05:39:10;;;;;;;;;28.00;25.50;;;;;11.89;69.84;100321.16;5061406;28;46242;-88
2023/01/19 05:41:36;;;;;;;;;30.75;27.25;;;;;11.92;69.90;100328.78;5079370;28;46301;-87
2023/01/19 05:44:01;;;;;;;;;27.25;25.00;;;;;11.93;69.81;100324.25;5061243;28;45330;-87
2023/01/19 05:46:26;;;;;;;;;27.50;25.75;;;;;11.99;69.94;100326.97;5079569;28;45753;-88
2023/01/19 05:48:52;;;;;;;;;32.50;25.00;;;;;11.98;69.86;100325.31;5079237;28;45295;-88
2023/01/19 05:51:17;;;;;;;;;30.75;25.00;;;;;12.05;70.20;100325.38;5079471;28;46704;-88
2023/01/19 05:53:42;;;;;;;;;32.00;25.00;;;;;12.10;70.21;100327.50;5079383;28;45226;-87
2023/01/19 05:56:09;;;;;;;;;24.75;24.25;;;;;12.17;70.22;100335.50;5079063;28;45319;-87
2023/01/19 05:58:38;;;;;;;;;22.50;19.75;;;;;12.21;70.09;100328.81;5078974;28;45235;-87
2023/01/19 06:01:05;;;;;;;;;28.75;26.00;;;;;12.23;69.94;100321.41;5074463;28;45938;-87
2023/01/19 06:03:32;;;;;;;;;28.00;24.00;;;;;12.24;70.23;100323.06;5052371;28;45383;-87
2023/01/19 06:05:58;;;;;;;;;34.25;28.75;;;;;12.33;69.58;100331.75;5078706;28;45442;-87
2023/01/19 06:08:23;;;;;;;;;32.75;28.50;;;;;12.28;69.65;100344.81;5060726;28;45544;-87
2023/01/19 06:10:49;;;;;;;;;26.75;25.50;;;;;12.27;69.65;100335.97;5060628;28;48284;-88
2023/01/19 06:13:14;;;;;;;;;24.25;22.00;;;;;12.30;69.55;100340.13;5079278;28;45151;-87
2023/01/19 06:15:41;;;;;;;;;29.25;27.50;;;;;12.33;69.84;100337.88;5056757;28;46007;-83
2023/01/19 06:18:07;;;;;;;;;22.25;21.00;;;;;12.34;69.12;100336.03;5057458;27;47356;-85
2023/01/19 06:20:32;;;;;;;;;33.25;27.50;;;;;12.27;69.46;100335.19;5060549;28;47465;-83
2023/01/19 06:22:58;;;;;;;;;27.00;24.25;;;;;12.22;69.60;100331.25;5079078;28;45311;-85
2023/01/19 06:25:24;;;;;;;;;25.75;24.50;;;;;12.29;70.26;100333.97;5079076;28;45377;-86
2023/01/19 06:27:49;;;;;;;;;33.50;30.50;;;;;12.39;69.82;100338.13;5078830;28;45418;-83
2023/01/19 06:30:16;;;;;;;;;28.50;26.00;;;;;12.33;69.77;100335.22;5078199;28;46269;-86
2023/01/19 06:32:41;;;;;;;;;26.25;23.00;;;;;12.33;69.54;100345.06;5078483;28;45434;-85
2023/01/19 06:35:07;;;;;;;;;29.00;29.00;;;;;12.30;69.01;100340.94;5060433;28;45254;-83
2023/01/19 06:37:33;;;;;;;;;29.00;27.25;;;;;12.28;69.37;100342.16;5078754;28;45211;-82
2023/01/19 06:39:58;;;;;;;;;26.50;23.00;;;;;12.35;69.86;100359.84;5059760;28;47225;-86
2023/01/19 06:42:23;;;;;;;;;36.50;32.25;;;;;12.43;69.90;100358.03;5078088;28;45269;-84
2023/01/19 06:44:49;;;;;;;;;33.25;29.50;;;;;12.32;69.08;100343.41;5078097;28;45250;-82
2023/01/19 06:47:14;;;;;;;;;30.25;26.00;;;;;12.35;69.16;100351.00;5080286;28;45208;-83
2023/01/19 06:49:40;;;;;;;;;28.75;26.25;;;;;12.29;69.42;100355.28;5078515;28;46424;-85
2023/01/19 06:52:08;;;;;;;;;26.75;23.00;;;;;12.22;69.49;100360.53;5081314;28;45335;-86
2023/01/19 06:54:33;;;;;;;;;32.50;29.25;;;;;12.15;69.60;100362.34;5082347;28;45335;-87
2023/01/19 06:56:58;;;;;;;;;29.25;25.75;;;;;12.19;70.12;100362.78;5081465;28;45455;-88
2023/01/19 06:59:24;;;;;;;;;26.50;25.50;;;;;12.16;70.27;100364.00;5063345;28;46718;-86
2023/01/19 07:01:50;;;;;;;;;31.00;25.00;;;;;12.14;70.05;100357.22;5081422;28;46334;-85
2023/01/19 07:04:15;;;;;;;;;29.50;27.25;;;;;12.24;70.38;100365.69;5081836;28;45344;-85
2023/01/19 07:06:40;;;;;;;;;27.25;27.25;;;;;12.24;70.04;100371.84;5063366;28;47485;-85
2023/01/19 07:09:09;;;;;;;;;28.25;26.75;;;;;12.60;68.66;100363.88;5081651;28;45474;-84
2023/01/19 07:11:35;;;;;;;;;26.25;26.25;;;;;12.27;69.25;100375.16;5063539;28;45981;-85
2023/01/19 07:14:00;;;;;;;;;26.75;22.25;;;;;12.23;69.75;100380.88;5081266;28;45323;-85
2023/01/19 07:16:26;;;;;;;;;28.50;26.00;;;;;12.59;68.62;100381.69;5059980;28;45587;-86
2023/01/19 07:18:51;;;;;;;;;33.25;26.75;;;;;12.61;68.06;100382.31;5078692;28;45209;-85
2023/01/19 07:21:18;;;;;;;;;29.00;27.00;;;;;12.67;67.92;100378.06;5066514;28;45382;-85
2023/01/19 07:23:43;;;;;;;;;35.50;27.75;;;;;12.43;67.45;100380.19;5081798;28;45349;-85
2023/01/19 07:26:09;;;;;;;;;28.25;24.50;;;;;12.20;69.07;100375.91;5081409;28;45380;-86
2023/01/19 07:28:35;;;;;;;;;28.00;25.50;;;;;12.50;68.88;100370.38;5081384;28;46277;-85
2023/01/19 07:31:02;;;;;;;;;25.75;24.00;;;;;12.70;68.32;100380.34;5081366;28;45413;-86
2023/01/19 07:33:28;;;;;;;;;26.50;26.50;;;;;12.63;68.31;100374.94;5081596;28;45326;-86
2023/01/19 07:35:53;;;;;;;;;31.00;27.50;;;;;12.74;68.59;100384.25;5080791;28;45334;-85
2023/01/19 07:38:19;;;;;;;;;26.00;25.50;;;;;12.69;67.75;100380.53;5062945;28;47142;-86
2023/01/19 07:40:48;;;;;;;;;34.25;27.50;;;;;12.72;68.13;100385.47;5081223;28;45529;-86
2023/01/19 07:43:14;;;;;;;;;34.00;28.25;;;;;12.70;68.09;100368.84;5081492;28;45341;-86
2023/01/19 07:45:40;;;;;;;;;40.50;30.25;;;;;12.78;68.21;100378.53;5062257;28;46422;-86
2023/01/19 07:48:05;;;;;;;;;27.75;27.25;;;;;12.53;68.40;100374.47;5081023;28;45959;-85
2023/01/19 07:50:31;;;;;;;;;32.25;29.25;;;;;12.86;68.06;100392.50;5062576;28;45426;-84
2023/01/19 07:52:56;;;;;;;;;24.50;22.00;;;;;12.82;68.41;100390.44;5081707;28;45330;-84
2023/01/19 07:55:23;;;;;;;;;28.00;26.25;;;;;12.88;68.22;100390.44;5063302;28;45901;-86
2023/01/19 07:57:51;;;;;;;;;27.25;26.75;;;;;12.88;68.49;100387.78;5077313;27;45509;-84
2023/01/19 08:00:20;;;;;;;;;29.50;28.00;;;;;12.97;67.67;100380.47;5079128;28;45278;-77
2023/01/19 08:02:50;;;;;;;;;42.00;35.50;;;;;13.04;67.64;100387.63;5077082;28;45687;-77
2023/01/19 08:05:19;;;;;;;;;38.50;34.75;;;;;13.05;67.57;100389.31;5079995;28;45415;-77
2023/01/19 08:07:45;;;;;;;;;45.25;40.50;;;;;12.94;67.67;100382.69;5062190;28;48314;-77
2023/01/19 08:10:12;;;;;;;;;26.50;22.75;;;;;12.90;68.01;100392.91;5080529;28;45506;-78
2023/01/19 08:12:37;;;;;;;;;31.50;27.50;;;;;12.94;67.79;100393.34;5079176;28;45388;-77
2023/01/19 08:15:03;;;;;;;;;30.25;26.00;;;;;12.96;67.94;100381.47;5080589;28;45226;-78
2023/01/19 08:17:28;;;;;;;;;33.50;28.00;;;;;13.00;68.37;100392.56;5080270;28;46116;-79
2023/01/19 08:19:54;;;;;;;;;105.33;100.33;;;;;13.02;68.47;100393.16;5079976;28;45171;-80
2023/01/19 08:22:19;;;;;;;;;53.25;44.00;;;;;13.06;68.36;100391.78;5079638;28;45414;-79
2023/01/19 08:24:44;;;;;;;;;54.50;43.00;;;;;13.12;67.97;100400.81;5079787;28;45449;-79
2023/01/19 08:27:10;;;;;;;;;32.00;30.00;;;;;13.09;67.27;100395.88;5079870;28;46417;-79
2023/01/19 08:29:35;;;;;;;;;38.00;36.75;;;;;13.04;67.82;100401.81;5079658;28;45365;-79
2023/01/19 08:32:01;;;;;;;;;72.75;58.75;;;;;13.11;67.82;100400.00;5080182;28;45365;-79
2023/01/19 08:34:29;;;;;;;;;30.75;29.25;;;;;13.16;67.64;100415.41;5078821;28;45470;-79
2023/01/19 08:36:55;;;;;;;;;28.00;24.33;;;;;13.19;67.11;100417.69;5079767;28;46608;-79
2023/01/19 08:39:22;;;;;;;;;18.33;14.67;;;;;13.12;66.74;100411.50;5079791;28;45457;-79
2023/01/19 08:41:49;;;;;;;;;37.50;27.75;;;;;13.09;66.67;100415.38;5079937;28;45369;-80
2023/01/19 08:44:14;;;;;;;;;42.25;36.50;;;;;13.07;66.67;100419.25;5061184;28;46974;-79
2023/01/19 08:46:40;;;;;;;;;62.50;51.00;;;;;13.13;67.87;100418.47;5079516;28;46904;-79
2023/01/19 08:49:06;;;;;;;;;37.00;35.25;;;;;13.12;67.30;100415.00;5080077;28;45249;-80
2023/01/19 08:51:31;;;;;;;;;27.33;25.33;;;;;13.22;67.22;100427.13;5080146;28;45452;-79
2023/01/19 08:53:56;;;;;;;;;88.50;75.75;;;;;13.18;67.10;100409.88;5061386;28;45373;-80
2023/01/19 08:56:22;;;;;;;;;68.75;54.50;;;;;13.21;66.89;100420.16;5079436;28;45826;-79
2023/01/19 08:58:47;;;;;;;;;79.25;64.75;;;;;13.24;66.81;100427.75;5079526;28;45556;-79
2023/01/19 09:01:17;;;;;;;;;31.50;27.75;;;;;13.20;66.56;100424.66;5079798;28;45520;-79
2023/01/19 09:03:43;;;;;;;;;71.00;56.00;;;;;13.20;67.02;100427.31;5079095;28;45332;-79
2023/01/19 09:06:10;;;;;;;;;70.75;55.00;;;;;13.30;67.06;100432.28;5079196;28;45305;-79
2023/01/19 09:08:35;;;;;;;;;72.75;58.75;;;;;13.29;67.25;100422.63;5079402;28;45296;-79
2023/01/19 09:11:00;;;;;;;;;55.25;47.00;;;;;13.37;66.21;100425.13;5079314;28;45465;-79
2023/01/19 09:13:26;;;;;;;;;30.00;26.00;;;;;13.31;65.49;100435.78;5079430;28;45288;-79
2023/01/19 09:15:52;;;;;;;;;26.50;26.25;;;;;13.28;65.73;100430.81;5079109;28;45881;-79
2023/01/19 09:18:20;;;;;;;;;11.33;9.67;;;;;13.32;65.62;100426.75;5079314;28;45473;-79
2023/01/19 09:20:48;;;;;;;;;55.25;43.75;;;;;13.29;66.07;100433.28;5060981;28;45377;-79
2023/01/19 09:23:16;;;;;;;;;28.25;27.00;;;;;13.32;65.30;100424.91;5079177;28;45173;-79
2023/01/19 09:25:43;;;;;;;;;22.50;21.50;;;;;13.36;66.66;100430.66;5079761;28;46245;-78
2023/01/19 09:28:11;;;;;;;;;17.00;16.00;;;;;13.38;65.30;100437.44;5058552;28;45535;-78
2023/01/19 09:30:38;;;;;;;;;18.00;16.00;;;;;13.35;65.32;100431.69;5064763;27;45438;-76
2023/01/19 09:33:06;;;;;;;;;17.33;16.67;;;;;13.35;65.35;100426.38;5065320;27;46055;-78
2023/01/19 09:35:32;;;;;;;;;24.75;23.25;;;;;13.34;64.99;100436.19;5062998;27;46222;-80
2023/01/19 09:37:58;;;;;;;;;34.25;31.75;;;;;13.31;65.11;100423.25;5071989;27;45371;-79
2023/01/19 09:40:24;;;;;;;;;16.67;15.00;;;;;13.33;65.27;100431.06;5071188;27;45425;-80
2023/01/19 09:42:55;;;;;;;;;20.33;20.33;;;;;13.35;65.46;100435.16;5079976;27;45520;-79
2023/01/19 09:45:30;;;;;;;;;54.00;45.25;;;;;13.41;66.06;100430.88;5078341;28;46161;-79
2023/01/19 09:47:57;;;;;;;;;66.75;54.50;;;;;13.42;66.23;100426.38;5078491;28;45402;-79
2023/01/19 09:50:32;;;;;;;;;54.25;45.00;;;;;13.48;65.90;100428.25;5078898;28;45357;-79
2023/01/19 09:53:12;;;;;;;;;45.00;40.25;;;;;13.56;65.83;100438.75;5078595;28;45406;-80
2023/01/19 09:55:40;;;;;;;;;32.00;27.25;;;;;13.56;66.08;100443.28;5079096;28;45374;-81
2023/01/19 09:58:15;;;;;;;;;40.50;35.25;;;;;13.62;66.20;100437.16;5065265;28;45290;-80
2023/01/19 10:00:43;;;;;;;;;32.00;28.25;;;;;13.54;65.87;100439.97;5079159;28;45299;-79
2023/01/19 10:03:16;;;;;;;;;16.00;14.67;;;;;13.62;65.44;100437.94;5078742;28;45523;-79
2023/01/19 10:06:00;;;;;;;;;36.75;30.50;;;;;13.62;65.29;100439.81;5078069;28;45218;-80
2023/01/19 10:08:39;;;;;;;;;21.75;20.50;;;;;13.54;65.37;100442.66;5078832;28;45489;-80
2023/01/19 10:11:34;;;;;;;;;36.75;35.25;;;;;13.50;66.29;100440.38;5078673;28;45472;-79
2023/01/19 10:14:05;;;;;;;;;16.00;15.67;;;;;13.53;65.86;100430.34;5059889;28;45650;-80
2023/01/19 10:16:41;;;;;;;;;21.33;20.00;;;;;13.69;66.53;100447.81;5078755;28;46373;-80
2023/01/19 10:19:39;;;;;;;;;25.50;22.75;;;;;13.75;66.40;100442.50;5078414;28;45322;-79
2023/01/19 10:22:18;;;;;;;;;21.00;20.33;;;;;13.73;65.92;100428.53;5064989;28;45535;-79
2023/01/19 10:24:45;;;;;;;;;29.00;25.75;;;;;13.78;66.28;100424.41;5082325;28;45644;-79
2023/01/19 10:27:20;;;;;;;;;19.67;19.00;;;;;13.96;65.92;100440.69;5063673;28;48761;-79
2023/01/19 10:29:46;;;;;;;;;22.33;19.67;;;;;13.89;65.89;100429.97;5082543;28;45290;-79
2023/01/19 10:32:35;;;;;;;;;20.00;17.33;;;;;13.94;65.31;100437.38;5082433;28;45264;-77
2023/01/19 10:35:11;;;;;;;;;20.33;19.67;;;;;13.94;65.43;100424.03;5071553;28;45277;-77
2023/01/19 10:37:38;;;;;;;;;20.67;17.33;;;;;14.09;65.43;100436.38;5082007;28;46364;-77
2023/01/19 10:40:09;;;;;;;;;16.67;16.67;;;;;14.13;64.86;100433.06;5082221;28;45225;-77
2023/01/19 10:42:36;;;;;;;;;21.33;19.33;;;;;14.12;65.57;100417.25;5082222;28;45328;-79
2023/01/19 10:45:03;;;;;;;;;26.00;22.67;;;;;14.16;64.40;100412.31;5063742;28;46638;-79
2023/01/19 10:47:35;;;;;;;;;19.33;19.00;;;;;14.20;65.47;100414.38;5081960;28;45353;-79
2023/01/19 10:50:28;;;;;;;;;26.50;24.25;;;;;14.29;64.81;100411.50;5081561;28;45255;-79
2023/01/19 10:52:56;;;;;;;;;27.00;26.00;;;;;14.38;64.26;100428.97;5082034;28;45409;-80
2023/01/19 10:55:36;;;;;;;;;21.33;21.33;;;;;14.38;64.30;100418.28;5081967;28;45499;-79
2023/01/19 10:58:03;;;;;;;;;31.33;26.33;;;;;14.33;63.97;100410.88;5081747;28;46214;-80
2023/01/19 11:00:30;;;;;;;;;31.00;25.50;;;;;14.37;64.08;100416.63;5082160;28;45395;-81
2023/01/19 11:02:56;;;;;;;;;21.33;20.00;;;;;14.45;64.36;100416.41;5081691;28;45379;-79
2023/01/19 11:05:24;;;;;;;;;21.33;21.33;;;;;14.52;64.34;100414.53;5081751;28;45446;-79
2023/01/19 11:07:50;;;;;;;;;29.50;23.25;;;;;14.55;63.85;100412.50;5081020;28;46791;-78
2023/01/19 11:10:16;;;;;;;;;31.25;29.50;;;;;14.54;63.70;100411.66;5081837;28;45401;-79
2023/01/19 11:12:44;;;;;;;;;26.50;26.50;;;;;14.59;64.53;100405.69;5063452;28;45310;-79
2023/01/19 11:15:27;;;;;;;;;33.00;28.50;;;;;14.61;63.69;100408.97;5081673;28;45506;-81
2023/01/19 11:17:52;;;;;;;;;29.50;26.75;;;;;14.59;63.17;100409.19;5051625;28;47238;-79
2023/01/19 11:20:32;;;;;;;;;34.75;27.75;;;;;14.50;63.15;100391.72;5081215;28;45506;-79
2023/01/19 11:23:13;;;;;;;;;28.00;27.00;;;;;14.61;63.47;100396.41;5081785;28;45333;-80
2023/01/19 11:25:39;;;;;;;;;28.00;26.25;;;;;14.59;63.39;100382.44;5076782;27;45521;-76
2023/01/19 11:28:05;;;;;;;;;37.00;34.50;;;;;14.68;63.61;100395.56;5064688;28;46285;-76